Date,TemperatureHighF,TemperatureAvgF,TemperatureLowF,DewpointHighF,DewpointAvgF,DewpointLowF,HumidityHigh,HumidityAvg,HumidityLow,PressureMaxIn,PressureMinIn,WindSpeedMaxMPH,WindSpeedAvgMPH,GustSpeedMaxMPH,PrecipitationSumIn
2013-9-1,83.4,73.9,67.8,72.8,69.0,64.6,100,87,55,29.84,29.74,7,0,7,0.21
2013-9-2,77.4,71.2,65.6,72.8,69.7,65.6,100,95,79,29.82,29.66,13,0,13,0.55
2013-9-3,73.9,66.5,61.5,69.1,64.1,61.5,100,93,70,29.76,29.67,12,1,16,0.03
2013-9-4,76.3,65.9,58.4,62.1,59.8,51.9,100,83,49,29.90,29.76,12,1,12,0.18
2013-9-5,66.4,56.9,42.1,60.9,49.2,38.8,100,79,39,30.15,29.85,13,1,14,0.15
2013-9-6,66.9,51.2,38.5,52.0,43.7,38.5,100,80,38,30.27,30.06,11,1,11,0.00
2013-9-7,72.7,59.4,43.5,59.9,54.0,43.5,100,84,50,30.05,29.81,10,0,10,0.01
2013-9-8,60.4,54.5,41.6,57.6,50.1,39.8,100,87,55,30.08,29.74,17,1,17,0.10
2013-9-9,67.4,51.1,36.8,56.6,45.1,36.8,100,84,40,30.22,30.06,12,1,12,0.00
2013-9-10,69.1,56.5,45.1,67.5,56.2,45.1,100,99,91,30.09,29.98,3,0,4,0.12
2013-9-11,89.5,71.6,61.8,76.5,68.2,61.8,100,91,56,30.01,29.84,22,1,24,0.18
2013-9-12,81.8,69.8,65.2,75.7,68.3,65.0,100,96,73,29.94,29.59,12,0,13,1.37
2013-9-13,65.3,60.7,55.4,65.3,60.7,55.4,100,100,98,29.79,29.57,10,0,10,0.48
2013-9-14,59.2,54.5,49.1,56.1,53.5,49.1,100,97,79,30.07,29.78,2,0,7,0.06
2013-9-15,67.3,53.9,42.9,58.7,50.5,42.9,100,90,57,30.14,29.98,7,1,8,0.00
2013-9-16,56.5,51.1,37.9,56.5,47.7,37.3,100,89,62,30.31,29.98,17,1,17,0.10
2013-9-17,63.1,46.3,34.0,48.7,40.3,34.0,100,84,43,30.46,30.31,11,1,11,0.00
2013-9-18,67.1,49.1,35.8,53.7,44.0,35.8,100,86,41,30.33,30.10,8,0,8,0.00
2013-9-19,73.1,52.7,39.8,56.4,47.5,39.8,100,86,40,30.16,30.00,8,0,8,0.00
2013-9-20,76.1,53.5,42.9,60.0,49.8,42.9,100,89,45,30.11,29.93,9,1,14,0.00
2013-9-21,71.9,59.8,44.9,60.7,52.9,44.9,100,81,48,29.95,29.58,21,3,24,0.01
2013-9-22,67.1,56.7,45.8,62.7,53.6,41.4,100,90,71,29.84,29.48,17,1,21,0.52
2013-9-23,47.7,44.8,41.8,42.9,39.8,36.9,96,83,72,30.01,29.83,12,1,12,0.00
2013-9-24,55.6,47.8,43.3,47.0,42.0,37.0,100,81,57,30.00,29.87,11,0,11,0.00
2013-9-25,56.5,50.0,44.2,47.9,46.5,43.9,100,89,70,30.00,29.89,10,0,10,0.00
2013-9-26,61.2,51.3,41.0,50.0,46.3,41.0,100,85,59,30.14,30.00,13,1,13,0.00
2013-9-27,66.6,55.1,46.1,56.8,50.6,46.1,100,87,53,30.28,30.14,8,0,8,0.00
2013-9-28,71.0,53.3,41.7,55.2,48.3,41.7,100,86,45,30.38,30.22,8,1,8,0.00
2013-9-29,70.7,53.0,42.1,56.0,48.5,42.1,100,87,48,30.25,30.05,8,1,9,0.00
2013-9-30,69.1,51.2,40.4,54.8,46.8,40.4,100,88,46,30.12,29.94,6,0,6,0.01